Antonina, Brazil
Current Conditions -  °F | °C
As of 12:00 PM on Thursday 29 Jan 2015 (Local Time) from SBCT Reporting Station
Broken Clouds Broken Clouds  
Wind Chill: 77°   Ceiling: 2300
Heat Index: 79°   Visibility: 6mi
Dew Point: 64°   Wind: 16mph
Humidity: 65%   Direction: 320°NW
Pressure: 30.03"   Gusts: 28mph
Location:  25.43°S, 48.71°W
Report Text: SBCT 291400Z 32014G24KT 9999 BKN023 25/18 Q1017
Loading
Personal Weather Stations






























Interactive Weather Map New forecast layout! Learn more

10-Day Weather Forecast

Advertisements
Track Severe Weather on mobile